Nearby METAR Reports

 

KSBP - San Luis Obispo, California, USA
Distance from station: S 14mi, 22km
Updated: Sat, 17-Feb-2018 10:56am
Clear
Clear
 Wind from calm
Wind: Calm
Temperature: 72°F , 22°C
Dew Point: 30°F , -1°C
Humidity: 22%
Barometer: 1020.3 hPa
Clouds: Clear
Visibility: 10 miles , 16 km
2018/02/17 18:56 KSBP 171856Z 00000KT 10SM CLR 22/M01 A3013 RMK AO2 SLP200 T02221006
KPRB - Paso Robles, California, USA
Distance from station: N 16mi, 26km
Updated: Sat, 17-Feb-2018 10:53am
Clear
Clear
 Wind from WNW
Wind: WNW 3 mph , 6 km/h
Temperature: 57°F , 14°C
Dew Point: 28°F , -2°C
Humidity: 33%
Barometer: 1021.3 hPa
Clouds: Clear
Visibility: 10 miles , 16 km
2018/02/17 18:53 KPRB 171853Z AUTO 30003KT 10SM CLR 14/M02 A3016 RMK AO2 SLP213 T01441017
 
KSMX - Santa Maria, California, USA
Distance from station: SSE 38mi, 62km
Updated: Sat, 17-Feb-2018 10:51am
Clear
Clear
 Wind from NNE
Wind: NNE 3 mph , 6 km/h
Temperature: 72°F , 22°C
Dew Point: 27°F , -3°C
Humidity: 19%
Barometer: 1020.3 hPa
Clouds: Clear
Visibility: 10 miles , 16 km
2018/02/17 18:51 KSMX 171851Z 03003KT 10SM CLR 22/M03 A3013 RMK AO2 SLP206 T02221028 $
KVBG - Vandenberg Afb, California, USA
Distance from station: S 48mi, 78km
Updated: Sat, 17-Feb-2018 10:58am
Clear
Clear
 Wind from calm
Wind: Calm
Temperature: 70°F , 21°C
Dew Point: 32°F , 0°C
Humidity: 25%
Barometer: 1020.7 hPa
Clouds: Clear
Visibility: 10 miles , 16 km
2018/02/17 18:58 KVBG 171858Z AUTO 00000KT 10SM CLR 21/00 A3014 RMK AO2 SLP209 T02071002 CHINO RWY12